createdAt,value
2018-04-16T00:01:29.212Z,100068.03
2018-04-16T00:06:45.409Z,100073.77
2018-04-16T00:09:14.047Z,100076.91
2018-04-16T00:11:42.650Z,100077.11
2018-04-16T00:14:11.294Z,100068.36
2018-04-16T00:16:39.900Z,100062.14
2018-04-16T00:19:08.501Z,100057.58
2018-04-16T00:21:37.133Z,100060.23
2018-04-16T00:24:05.738Z,100056.45
2018-04-16T00:26:34.367Z,100054.91
2018-04-16T00:29:02.965Z,100061.16
2018-04-16T00:31:49.573Z,100066.06
2018-04-16T00:34:36.226Z,100061.22
2018-04-16T00:37:22.842Z,100067.09
2018-04-16T00:43:04.711Z,100072.39
2018-04-16T00:45:51.131Z,100068.52
2018-04-16T00:48:37.775Z,100068.73
2018-04-16T00:51:32.337Z,100074.40
2018-04-16T00:54:37.304Z,100067.80
2018-04-16T00:57:24.339Z,100056.97
2018-04-16T01:00:11.060Z,100054.91
2018-04-16T01:02:57.606Z,100053.38
2018-04-16T01:05:32.519Z,100044.70
2018-04-16T01:08:18.987Z,100043.97
2018-04-16T01:11:05.550Z,100027.45
2018-04-16T01:13:52.108Z,100029.63
2018-04-16T01:16:39.030Z,100035.48
2018-04-16T01:19:25.608Z,100031.98
2018-04-16T01:22:12.461Z,100050.31
2018-04-16T01:24:59.245Z,100054.24
2018-04-16T01:27:45.953Z,100059.69
2018-04-16T01:30:32.609Z,100058.99
2018-04-16T01:33:19.136Z,100061.09
2018-04-16T01:36:05.959Z,100060.14
2018-04-16T01:38:52.832Z,100056.73
2018-04-16T01:41:39.671Z,100051.22
2018-04-16T01:44:26.218Z,100054.09
2018-04-16T01:47:12.717Z,100059.02
2018-04-16T01:49:59.383Z,100062.90
2018-04-16T01:52:45.937Z,100058.30
2018-04-16T01:55:32.527Z,100063.05
2018-04-16T01:58:19.224Z,100054.65
2018-04-16T02:01:06.010Z,100055.80
2018-04-16T02:03:52.818Z,100058.46
2018-04-16T02:06:39.706Z,100064.39
2018-04-16T02:09:26.597Z,100070.14
2018-04-16T02:12:13.214Z,100067.42
2018-04-16T02:14:44.694Z,100066.77
2018-04-16T02:17:32.866Z,100074.97
2018-04-16T02:20:19.600Z,100081.64
2018-04-16T02:23:06.435Z,100077.13
2018-04-16T02:25:53.352Z,100089.83
2018-04-16T02:28:40.162Z,100091.77
2018-04-16T02:31:26.931Z,100093.03
2018-04-16T02:34:14.042Z,100100.30
2018-04-16T02:37:00.758Z,100103.86
2018-04-16T02:39:47.218Z,100103.29
2018-04-16T02:42:33.978Z,100110.97
2018-04-16T02:45:20.768Z,100116.52
2018-04-16T02:48:07.676Z,100118.75
2018-04-16T02:50:54.536Z,100126.41
2018-04-16T02:53:41.432Z,100128.06
2018-04-16T02:56:28.068Z,100131.94
2018-04-16T02:59:14.961Z,100139.56
2018-04-16T03:02:01.488Z,100133.59
2018-04-16T03:04:48.354Z,100123.43
2018-04-16T03:07:35.188Z,100123.45
2018-04-16T03:10:21.640Z,100131.80
2018-04-16T03:13:08.131Z,100136.28
2018-04-16T03:15:54.992Z,100129.20
2018-04-16T03:18:41.793Z,100132.91
2018-04-16T03:21:28.508Z,100122.42
2018-04-16T03:24:15.193Z,100135.52
2018-04-16T03:27:02.090Z,100133.88
2018-04-16T03:32:44.619Z,100134.00
2018-04-16T03:35:33.527Z,100136.17
2018-04-16T03:38:20.206Z,100134.05
2018-04-16T03:41:07.104Z,100135.94
2018-04-16T03:43:53.490Z,100135.45
2018-04-16T03:46:40.189Z,100141.44
2018-04-16T03:49:29.031Z,100141.00
2018-04-16T03:52:03.648Z,100143.13
2018-04-16T03:54:32.246Z,100149.41
2018-04-16T03:57:00.887Z,100153.70
2018-04-16T03:59:29.483Z,100161.80
2018-04-16T04:01:58.130Z,100158.56
2018-04-16T04:04:26.739Z,100155.36
2018-04-16T04:06:55.377Z,100158.48
2018-04-16T04:09:23.989Z,100160.11
2018-04-16T04:11:52.631Z,100161.50
2018-04-16T04:14:21.250Z,100160.08
2018-04-16T04:16:49.902Z,100164.96
2018-04-16T04:19:18.505Z,100159.39
2018-04-16T04:21:47.168Z,100162.84
2018-04-16T04:24:52.924Z,100165.29
2018-04-16T04:27:58.426Z,100167.02
2018-04-16T04:30:38.623Z,100170.83
2018-04-16T04:33:07.263Z,100175.30
2018-04-16T04:35:37.880Z,100176.88
2018-04-16T04:38:06.524Z,100184.31
2018-04-16T04:40:35.132Z,100182.08
2018-04-16T04:43:03.779Z,100176.45
2018-04-16T04:45:33.247Z,100181.91
2018-04-16T04:48:01.857Z,100186.86
2018-04-16T04:50:31.109Z,100184.56
2018-04-16T04:52:59.767Z,100187.83
2018-04-16T04:55:28.359Z,100192.97
2018-04-16T04:58:00.104Z,100197.52
2018-04-16T05:00:28.768Z,100193.00
2018-04-16T05:02:59.857Z,100193.40
2018-04-16T05:05:28.493Z,100203.30
2018-04-16T05:07:57.106Z,100201.68
2018-04-16T05:10:25.788Z,100210.99
2018-04-16T05:12:54.459Z,100215.50
2018-04-16T05:15:23.034Z,100214.66
2018-04-16T05:17:51.660Z,100214.11
2018-04-16T05:20:20.260Z,100220.34
2018-04-16T05:22:48.901Z,100215.08
2018-04-16T05:25:17.519Z,100221.19
2018-04-16T05:27:46.164Z,100224.75
2018-04-16T05:30:14.781Z,100227.78
2018-04-16T05:32:43.422Z,100233.27
2018-04-16T05:35:12.033Z,100225.35
2018-04-16T05:37:40.700Z,100230.92
2018-04-16T05:40:09.305Z,100230.75
2018-04-16T05:42:38.159Z,100237.16
2018-04-16T05:45:06.764Z,100239.58
2018-04-16T05:47:35.406Z,100243.39
2018-04-16T05:50:04.018Z,100243.11
2018-04-16T05:52:32.677Z,100249.88
2018-04-16T05:55:01.295Z,100256.16
2018-04-16T05:57:29.945Z,100260.09
2018-04-16T05:59:58.566Z,100260.64
2018-04-16T06:02:27.210Z,100264.26
2018-04-16T06:04:55.835Z,100268.82
2018-04-16T06:07:24.459Z,100265.49
2018-04-16T06:09:53.116Z,100270.45
2018-04-16T06:12:21.755Z,100275.11
2018-04-16T06:14:50.400Z,100277.64
2018-04-16T06:17:21.565Z,100280.77
2018-04-16T06:19:50.215Z,100282.65
2018-04-16T06:22:18.829Z,100285.33
2018-04-16T06:24:48.473Z,100290.47
2018-04-16T06:27:17.115Z,100292.55
2018-04-16T06:29:45.733Z,100293.03
2018-04-16T06:32:17.205Z,100295.89
2018-04-16T06:34:43.012Z,100297.23
2018-04-16T06:37:11.623Z,100296.30
2018-04-16T06:39:40.279Z,100298.34
2018-04-16T06:42:08.892Z,100304.78
2018-04-16T06:44:37.661Z,100302.23
2018-04-16T06:47:06.278Z,100309.34
2018-04-16T06:49:34.948Z,100312.73
2018-04-16T06:52:03.573Z,100319.22
2018-04-16T06:54:32.219Z,100315.02
2018-04-16T06:57:00.855Z,100318.77
2018-04-16T06:59:29.508Z,100318.23
2018-04-16T07:01:58.177Z,100315.70
2018-04-16T07:04:26.760Z,100319.10
2018-04-16T07:06:55.407Z,100318.06
2018-04-16T07:09:24.038Z,100317.48
2018-04-16T07:11:53.613Z,100317.05
2018-04-16T07:14:22.241Z,100320.15
2018-04-16T07:16:50.901Z,100320.57
2018-04-16T07:19:19.525Z,100327.05
2018-04-16T07:21:48.185Z,100324.31
2018-04-16T07:24:16.870Z,100327.52
2018-04-16T07:26:45.483Z,100325.52
2018-04-16T07:29:14.100Z,100326.31
2018-04-16T07:31:42.752Z,100332.41
2018-04-16T07:34:11.368Z,100332.73
2018-04-16T07:36:40.056Z,100331.38
2018-04-16T07:39:08.689Z,100325.59
2018-04-16T07:41:37.300Z,100328.39
2018-04-16T07:44:05.973Z,100325.41
2018-04-16T07:46:34.592Z,100332.89
2018-04-16T07:49:03.246Z,100336.38
2018-04-16T07:51:31.831Z,100339.16
2018-04-16T07:54:00.470Z,100336.11
2018-04-16T07:56:29.083Z,100342.27
2018-04-16T07:58:57.732Z,100347.70
2018-04-16T08:01:26.392Z,100348.09
2018-04-16T08:03:54.996Z,100345.41
2018-04-16T08:06:23.602Z,100342.09
2018-04-16T08:08:52.207Z,100348.05
2018-04-16T08:11:20.844Z,100345.55
2018-04-16T08:13:49.449Z,100350.28
2018-04-16T08:16:18.091Z,100356.47
2018-04-16T08:18:46.695Z,100356.48
2018-04-16T08:21:15.345Z,100353.38
2018-04-16T08:23:43.963Z,100356.60
2018-04-16T08:26:12.613Z,100357.26
2018-04-16T08:28:41.219Z,100359.78
2018-04-16T08:31:09.885Z,100359.91
2018-04-16T08:33:38.491Z,100357.58
2018-04-16T08:36:07.190Z,100357.91
2018-04-16T08:38:35.809Z,100359.91
2018-04-16T08:41:04.482Z,100356.36
2018-04-16T08:43:33.092Z,100363.49
2018-04-16T08:46:01.720Z,100357.55
2018-04-16T08:48:30.363Z,100357.91
2018-04-16T08:50:58.967Z,100350.30
2018-04-16T08:53:27.607Z,100354.69
2018-04-16T08:55:56.216Z,100354.27
2018-04-16T08:58:24.861Z,100357.44
2018-04-16T09:00:53.459Z,100355.86
2018-04-16T09:03:22.105Z,100361.35
2018-04-16T09:05:50.717Z,100360.83
2018-04-16T09:08:19.362Z,100356.59
2018-04-16T09:10:47.979Z,100353.17
2018-04-16T09:13:16.624Z,100355.70
2018-04-16T09:15:45.238Z,100358.33
2018-04-16T09:18:13.875Z,100361.58
2018-04-16T09:20:42.483Z,100364.69
2018-04-16T09:23:11.126Z,100373.28
2018-04-16T09:25:39.743Z,100372.30
2018-04-16T09:28:08.357Z,100369.63
2018-04-16T09:30:37.032Z,100371.67
2018-04-16T09:33:05.638Z,100366.61
2018-04-16T09:35:34.553Z,100374.36
2018-04-16T09:38:03.172Z,100370.35
2018-04-16T09:40:31.818Z,100372.61
2018-04-16T09:43:01.820Z,100379.11
2018-04-16T09:45:30.961Z,100374.73
2018-04-16T09:47:59.584Z,100369.14
2018-04-16T09:50:31.155Z,100368.21
2018-04-16T09:52:59.767Z,100371.44
2018-04-16T09:55:28.808Z,100369.76
2018-04-16T09:57:57.432Z,100372.48
2018-04-16T10:00:31.465Z,100373.02
2018-04-16T10:03:02.810Z,100377.66
2018-04-16T10:05:33.921Z,100374.70
2018-04-16T10:08:02.590Z,100375.16
2018-04-16T10:10:33.548Z,100376.16
2018-04-16T10:13:03.607Z,100370.80
2018-04-16T10:15:32.272Z,100379.53
2018-04-16T10:18:02.527Z,100377.13
2018-04-16T10:20:31.115Z,100380.44
2018-04-16T10:23:02.015Z,100371.07
2018-04-16T10:25:32.207Z,100373.09
2018-04-16T10:28:04.072Z,100378.33
2018-04-16T10:30:32.675Z,100372.87
2018-04-16T10:33:01.310Z,100371.98
2018-04-16T10:35:32.970Z,100371.52
2018-04-16T10:38:04.162Z,100378.31
2018-04-16T10:40:32.783Z,100374.12
2018-04-16T10:43:01.751Z,100374.11
2018-04-16T10:45:30.751Z,100372.79
2018-04-16T10:47:59.711Z,100371.55
2018-04-16T10:50:28.319Z,100363.50
2018-04-16T10:52:58.465Z,100362.36
2018-04-16T10:55:27.519Z,100359.41
2018-04-16T10:57:56.145Z,100359.59
2018-04-16T11:00:24.776Z,100367.08
2018-04-16T11:02:53.429Z,100367.48
2018-04-16T11:05:22.372Z,100362.70
2018-04-16T11:07:51.016Z,100367.35
2018-04-16T11:10:19.630Z,100365.66
2018-04-16T11:12:49.264Z,100369.47
2018-04-16T11:15:20.121Z,100364.61
2018-04-16T11:17:48.761Z,100367.54
2018-04-16T11:20:17.371Z,100365.20
2018-04-16T11:22:46.037Z,100365.97
2018-04-16T11:25:14.646Z,100372.61
2018-04-16T11:27:43.249Z,100382.86
2018-04-16T11:30:11.887Z,100376.70
2018-04-16T11:32:40.491Z,100378.17
2018-04-16T11:35:09.131Z,100385.03
2018-04-16T11:37:37.739Z,100384.38
2018-04-16T11:40:06.371Z,100382.50
2018-04-16T11:42:34.977Z,100387.14
2018-04-16T11:45:03.616Z,100390.45
2018-04-16T11:47:32.228Z,100394.62
2018-04-16T11:50:00.874Z,100395.80
2018-04-16T11:52:29.477Z,100389.30
2018-04-16T11:54:58.118Z,100399.59
2018-04-16T11:57:26.748Z,100394.78
2018-04-16T11:59:55.370Z,100407.81
2018-04-16T12:02:23.974Z,100410.66
2018-04-16T12:04:52.613Z,100412.03
2018-04-16T12:07:21.234Z,100413.00
2018-04-16T12:09:49.913Z,100416.67
2018-04-16T12:12:18.529Z,100420.67
2018-04-16T12:14:47.141Z,100421.83
2018-04-16T12:17:15.778Z,100427.20
2018-04-16T12:19:44.390Z,100431.06
2018-04-16T12:22:13.035Z,100428.27
2018-04-16T12:24:41.641Z,100432.05
2018-04-16T12:27:10.283Z,100434.58
2018-04-16T12:29:38.893Z,100434.41
2018-04-16T12:32:07.538Z,100434.77
2018-04-16T12:34:36.143Z,100440.67
2018-04-16T12:37:04.786Z,100443.88
2018-04-16T12:39:33.399Z,100440.98
2018-04-16T12:42:02.039Z,100448.45
2018-04-16T12:44:30.702Z,100455.67
2018-04-16T12:46:59.342Z,100455.62
2018-04-16T12:49:27.938Z,100457.27
2018-04-16T12:51:56.581Z,100460.84
2018-04-16T12:54:25.193Z,100468.97
2018-04-16T12:56:53.831Z,100474.17
2018-04-16T12:59:22.442Z,100471.55
2018-04-16T13:01:51.129Z,100477.75
2018-04-16T13:04:19.731Z,100479.88
2018-04-16T13:06:48.336Z,100485.53
2018-04-16T13:09:16.977Z,100491.28
2018-04-16T13:11:45.592Z,100498.63
2018-04-16T13:14:14.234Z,100493.73
2018-04-16T13:16:42.845Z,100497.52
2018-04-16T13:19:11.485Z,100502.73
2018-04-16T13:21:42.043Z,100504.58
2018-04-16T13:24:10.674Z,100506.34
2018-04-16T13:26:39.273Z,100511.23
2018-04-16T13:29:07.912Z,100511.41
2018-04-16T13:31:36.515Z,100507.84
2018-04-16T13:34:05.151Z,100514.34
2018-04-16T13:36:33.762Z,100513.75
2018-04-16T13:39:02.390Z,100512.34
2018-04-16T13:41:30.988Z,100511.70
2018-04-16T13:44:01.525Z,100515.12
2018-04-16T13:46:36.288Z,100513.52
2018-04-16T13:49:12.434Z,100511.75
2018-04-16T13:51:45.391Z,100515.47
2018-04-16T13:54:21.146Z,100510.84
2018-04-16T13:56:50.583Z,100505.66
2018-04-16T13:59:19.482Z,100511.27
2018-04-16T14:01:49.244Z,100511.86
2018-04-16T14:04:18.929Z,100521.80
2018-04-16T14:06:48.517Z,100514.60
2018-04-16T14:09:17.362Z,100518.55
2018-04-16T14:11:46.862Z,100528.59
2018-04-16T14:14:15.553Z,100523.62
2018-04-16T14:16:44.200Z,100527.52
2018-04-16T14:19:12.869Z,100528.41
2018-04-16T14:21:41.509Z,100535.70
2018-04-16T14:24:10.587Z,100535.51
2018-04-16T14:26:39.847Z,100539.84
2018-04-16T14:29:08.656Z,100536.69
2018-04-16T14:31:37.751Z,100544.16
2018-04-16T14:34:06.359Z,100544.64
2018-04-16T14:36:35.572Z,100543.11
2018-04-16T14:39:04.176Z,100542.60
2018-04-16T14:41:33.245Z,100541.36
2018-04-16T14:44:02.035Z,100540.80
2018-04-16T14:46:33.004Z,100537.12
2018-04-16T14:49:01.731Z,100537.83
2018-04-16T14:51:30.334Z,100539.64
2018-04-16T14:53:58.976Z,100532.73
2018-04-16T14:56:27.585Z,100538.13
2018-04-16T14:58:56.224Z,100540.73
2018-04-16T15:01:24.865Z,100536.98
2018-04-16T15:03:54.187Z,100540.22
2018-04-16T15:06:25.114Z,100537.48
2018-04-16T15:08:53.764Z,100538.39
2018-04-16T15:11:22.369Z,100542.53
2018-04-16T15:13:51.021Z,100542.30
2018-04-16T15:16:19.631Z,100548.02
2018-04-16T15:18:48.689Z,100554.77
2018-04-16T15:21:17.295Z,100559.30
2018-04-16T15:23:46.270Z,100553.72
2018-04-16T15:26:14.883Z,100559.47
2018-04-16T15:28:43.519Z,100551.50
2018-04-16T15:31:12.127Z,100554.31
2018-04-16T15:33:41.081Z,100552.74
2018-04-16T15:36:09.690Z,100557.12
2018-04-16T15:38:38.322Z,100554.63
2018-04-16T15:41:06.923Z,100550.51
2018-04-16T15:43:35.709Z,100557.97
2018-04-16T15:46:04.436Z,100561.45
2018-04-16T15:48:35.568Z,100557.74
2018-04-16T15:51:04.991Z,100556.39
2018-04-16T15:53:34.202Z,100559.73
2018-04-16T15:56:03.444Z,100553.47
2018-04-16T15:58:39.735Z,100550.67
2018-04-16T16:01:08.995Z,100551.66
2018-04-16T16:03:38.147Z,100551.55
2018-04-16T16:06:07.516Z,100549.72
2018-04-16T16:08:36.118Z,100549.45
2018-04-16T16:11:04.755Z,100547.59
2018-04-16T16:13:33.352Z,100555.17
2018-04-16T16:16:01.984Z,100558.64
2018-04-16T16:18:31.349Z,100555.80
2018-04-16T16:20:59.919Z,100553.89
2018-04-16T16:23:28.518Z,100566.28
2018-04-16T16:25:57.146Z,100563.38
2018-04-16T16:28:25.839Z,100563.44
2018-04-16T16:30:54.478Z,100560.39
2018-04-16T16:33:23.193Z,100566.13
2018-04-16T16:35:53.328Z,100564.41
2018-04-16T16:38:21.961Z,100563.30
2018-04-16T16:40:51.251Z,100570.38
2018-04-16T16:43:19.843Z,100576.56
2018-04-16T16:45:48.968Z,100584.50
2018-04-16T16:48:18.033Z,100588.47
2018-04-16T16:50:47.052Z,100589.14
2018-04-16T16:53:18.299Z,100594.80
2018-04-16T16:58:37.500Z,100599.99
2018-04-16T17:01:08.421Z,100593.22
2018-04-16T17:03:39.440Z,100599.66
2018-04-16T17:06:08.511Z,100597.75
2018-04-16T17:08:37.152Z,100607.58
2018-04-16T17:11:08.993Z,100608.73
2018-04-16T17:13:39.813Z,100606.91
2018-04-16T17:16:08.392Z,100615.39
2018-04-16T17:18:37.557Z,100623.36
2018-04-16T17:21:15.420Z,100634.09
2018-04-16T17:23:44.395Z,100633.26
2018-04-16T17:26:12.990Z,100636.39
2018-04-16T17:28:42.071Z,100630.63
2018-04-16T17:31:10.689Z,100628.84
2018-04-16T17:33:39.541Z,100631.45
2018-04-16T17:36:08.654Z,100636.06
2018-04-16T17:38:40.408Z,100640.91
2018-04-16T17:41:09.035Z,100643.36
2018-04-16T17:43:37.645Z,100645.12
2018-04-16T17:46:06.289Z,100650.69
2018-04-16T17:48:34.926Z,100648.56
2018-04-16T17:51:04.336Z,100652.97
2018-04-16T17:53:35.176Z,100667.97
2018-04-16T17:56:04.145Z,100670.91
2018-04-16T17:58:33.134Z,100671.66
2018-04-16T18:01:03.508Z,100666.83
2018-04-16T18:03:32.251Z,100669.81
2018-04-16T18:06:00.932Z,100676.96
2018-04-16T18:08:36.770Z,100686.80
2018-04-16T18:11:09.367Z,100694.25
2018-04-16T18:13:38.739Z,100694.03
2018-04-16T18:16:08.400Z,100700.43
2018-04-16T18:18:46.656Z,100704.48
2018-04-16T18:21:16.547Z,100707.33
2018-04-16T18:24:05.337Z,100706.72
2018-04-16T18:26:34.767Z,100712.38
2018-04-16T18:29:03.301Z,100713.00
2018-04-16T18:31:32.097Z,100710.77
2018-04-16T18:34:08.951Z,100716.31
2018-04-16T18:36:42.375Z,100721.70
2018-04-16T18:39:14.481Z,100731.72
2018-04-16T18:41:44.437Z,100728.11
2018-04-16T18:44:13.312Z,100728.98
2018-04-16T18:46:43.381Z,100729.23
2018-04-16T18:49:12.293Z,100736.89
2018-04-16T18:51:44.983Z,100738.77
2018-04-16T18:54:14.435Z,100752.05
2018-04-16T18:56:44.419Z,100745.67
2018-04-16T18:59:13.900Z,100755.26
2018-04-16T19:01:43.170Z,100760.70
2018-04-16T19:04:12.476Z,100763.79
2018-04-16T19:06:43.367Z,100769.42
2018-04-16T19:09:12.770Z,100768.80
2018-04-16T19:11:47.648Z,100773.63
2018-04-16T19:14:17.875Z,100778.79
2018-04-16T19:16:47.005Z,100788.14
2018-04-16T19:19:16.527Z,100788.67
2018-04-16T19:21:54.212Z,100792.18
2018-04-16T19:24:23.486Z,100798.38
2018-04-16T19:27:13.717Z,100800.94
2018-04-16T19:29:42.708Z,100802.17
2018-04-16T19:32:12.588Z,100800.84
2018-04-16T19:34:59.399Z,100799.23
2018-04-16T19:37:28.968Z,100804.39
2018-04-16T19:39:58.563Z,100808.30
2018-04-16T19:42:42.678Z,100808.98
2018-04-16T19:45:14.099Z,100815.12
2018-04-16T19:47:44.275Z,100831.70
2018-04-16T19:50:13.517Z,100834.72
2018-04-16T19:52:42.847Z,100843.95
2018-04-16T19:55:11.951Z,100853.95
2018-04-16T19:58:00.456Z,100846.20
2018-04-16T20:00:29.735Z,100839.45
2018-04-16T20:03:16.819Z,100837.73
2018-04-16T20:05:46.265Z,100841.20
2018-04-16T20:08:15.718Z,100845.78
2018-04-16T20:10:44.878Z,100850.39
2018-04-16T20:13:13.823Z,100854.13
2018-04-16T20:15:44.191Z,100857.76
2018-04-16T20:18:18.552Z,100862.75
2018-04-16T20:20:48.460Z,100862.38
2018-04-16T20:23:18.379Z,100872.33
2018-04-16T20:26:05.112Z,100868.55
2018-04-16T20:28:34.576Z,100875.13
2018-04-16T20:31:03.291Z,100875.86
2018-04-16T20:33:33.131Z,100879.26
2018-04-16T20:36:02.655Z,100882.45
2018-04-16T20:38:31.638Z,100890.19
2018-04-16T20:41:00.595Z,100889.81
2018-04-16T20:43:29.925Z,100888.14
2018-04-16T20:46:01.575Z,100885.49
2018-04-16T20:48:30.750Z,100888.31
2018-04-16T20:50:59.815Z,100886.05
2018-04-16T20:53:28.626Z,100894.98
2018-04-16T20:55:57.469Z,100890.09
2018-04-16T20:58:26.706Z,100889.94
2018-04-16T21:00:56.197Z,100881.41
2018-04-16T21:03:25.182Z,100878.67
2018-04-16T21:05:54.314Z,100883.63
2018-04-16T21:08:25.457Z,100883.69
2018-04-16T21:10:54.448Z,100883.38
2018-04-16T21:13:24.506Z,100890.42
2018-04-16T21:15:53.855Z,100893.16
2018-04-16T21:18:23.019Z,100892.39
2018-04-16T21:20:51.695Z,100899.58
2018-04-16T21:23:20.353Z,100903.38
2018-04-16T21:25:49.513Z,100910.30
2018-04-16T21:28:20.324Z,100908.96
2018-04-16T21:30:50.731Z,100916.53
2018-04-16T21:33:19.843Z,100910.69
2018-04-16T21:35:49.901Z,100921.02
2018-04-16T21:38:18.554Z,100922.86
2018-04-16T21:40:47.429Z,100931.99
2018-04-16T21:43:16.286Z,100932.90
2018-04-16T21:45:49.258Z,100934.09
2018-04-16T21:48:18.876Z,100934.91
2018-04-16T21:50:48.454Z,100935.75
2018-04-16T21:53:19.584Z,100933.91
2018-04-16T21:55:51.638Z,100941.38
2018-04-16T21:58:20.811Z,100948.08
2018-04-16T22:00:53.091Z,100945.56
2018-04-16T22:03:24.667Z,100947.14
2018-04-16T22:05:54.503Z,100945.57
2018-04-16T22:08:23.116Z,100944.00
2018-04-16T22:10:59.043Z,100943.30
2018-04-16T22:13:28.965Z,100946.95
2018-04-16T22:15:58.972Z,100957.02
2018-04-16T22:18:27.619Z,100951.72
2018-04-16T22:20:56.310Z,100961.02
2018-04-16T22:23:25.038Z,100960.69
2018-04-16T22:25:53.690Z,100964.41
2018-04-16T22:28:22.372Z,100961.61
2018-04-16T22:30:51.918Z,100966.45
2018-04-16T22:33:20.606Z,100973.28
2018-04-16T22:35:49.239Z,100978.84
2018-04-16T22:38:18.902Z,100986.02
2018-04-16T22:40:47.675Z,100985.87
2018-04-16T22:43:17.284Z,100998.06
2018-04-16T22:45:45.941Z,100998.59
2018-04-16T22:48:14.610Z,101005.44
2018-04-16T22:50:43.263Z,101011.70
2018-04-16T22:53:11.938Z,101017.96
2018-04-16T22:55:40.609Z,101029.77
2018-04-16T22:58:11.711Z,101033.13
2018-04-16T23:00:40.353Z,101037.70
2018-04-16T23:03:09.069Z,101036.23
2018-04-16T23:05:37.765Z,101035.75
2018-04-16T23:08:06.409Z,101041.96
2018-04-16T23:10:35.079Z,101046.41
2018-04-16T23:13:03.719Z,101066.41
2018-04-16T23:15:32.394Z,101071.70
2018-04-16T23:18:01.038Z,101076.39
2018-04-16T23:20:29.720Z,101078.36
2018-04-16T23:22:58.377Z,101078.84
2018-04-16T23:25:27.053Z,101079.32
2018-04-16T23:27:55.751Z,101087.44
2018-04-16T23:30:24.423Z,101085.70
2018-04-16T23:32:53.361Z,101085.62
2018-04-16T23:35:22.181Z,101094.31
2018-04-16T23:37:52.392Z,101094.19
2018-04-16T23:40:24.315Z,101085.97
2018-04-16T23:42:53.658Z,101090.73
2018-04-16T23:45:22.658Z,101092.88
2018-04-16T23:47:51.636Z,101093.44
2018-04-16T23:50:24.582Z,101098.84
2018-04-16T23:52:53.534Z,101098.16
2018-04-16T23:55:26.732Z,101097.22
2018-04-16T23:57:55.712Z,101103.68
